createdAt,value
2023-01-22T00:02:17.606Z,7.60
2023-01-22T00:04:47.677Z,7.00
2023-01-22T00:07:20.306Z,7.20
2023-01-22T00:09:52.733Z,6.90
2023-01-22T00:12:23.422Z,7.20
2023-01-22T00:14:56.200Z,7.10
2023-01-22T00:17:26.642Z,6.80
2023-01-22T00:19:57.226Z,7.10
2023-01-22T00:22:27.861Z,7.00
2023-01-22T00:24:58.337Z,7.00
2023-01-22T00:27:31.586Z,6.80
2023-01-22T00:30:02.478Z,6.90
2023-01-22T00:32:37.869Z,7.20
2023-01-22T00:35:10.241Z,7.00
2023-01-22T00:37:44.819Z,6.70
2023-01-22T00:40:16.578Z,7.00
2023-01-22T00:42:46.858Z,7.00
2023-01-22T00:45:17.450Z,6.40
2023-01-22T00:47:53.501Z,7.30
2023-01-22T00:50:25.668Z,7.00
2023-01-22T00:52:55.842Z,6.50
2023-01-22T00:55:26.027Z,6.90
2023-01-22T00:57:56.555Z,6.30
2023-01-22T01:00:29.215Z,6.30
2023-01-22T01:03:17.885Z,6.80
2023-01-22T01:05:48.313Z,6.10
2023-01-22T01:08:18.899Z,6.50
2023-01-22T01:10:55.269Z,6.40
2023-01-22T01:13:26.467Z,6.10
2023-01-22T01:16:03.241Z,5.90
2023-01-22T01:18:35.768Z,6.30
2023-01-22T01:21:07.172Z,6.20
2023-01-22T01:23:42.308Z,6.30
2023-01-22T01:26:17.208Z,6.20
2023-01-22T01:28:47.767Z,6.30
2023-01-22T01:31:18.945Z,6.20
2023-01-22T01:33:50.134Z,5.60
2023-01-22T01:36:40.358Z,5.70
2023-01-22T01:39:12.829Z,5.90
2023-01-22T01:41:45.825Z,6.00
2023-01-22T01:44:19.452Z,5.40
2023-01-22T01:46:52.841Z,5.60
2023-01-22T01:49:30.415Z,5.90
2023-01-22T01:52:05.273Z,5.50
2023-01-22T01:54:37.115Z,5.90
2023-01-22T01:57:14.757Z,5.50
2023-01-22T01:59:50.876Z,5.30
2023-01-22T02:02:23.441Z,5.40
2023-01-22T02:04:55.667Z,5.20
2023-01-22T02:07:26.382Z,5.40
2023-01-22T02:09:56.733Z,5.30
2023-01-22T02:12:27.369Z,5.00
2023-01-22T02:14:58.417Z,5.40
2023-01-22T02:17:29.407Z,5.30
2023-01-22T02:19:59.586Z,5.10
2023-01-22T02:22:36.568Z,5.10
2023-01-22T02:25:10.219Z,4.90
2023-01-22T02:27:40.378Z,5.10
2023-01-22T02:30:13.839Z,5.10
2023-01-22T02:32:46.994Z,4.70
2023-01-22T02:35:20.543Z,4.80
2023-01-22T02:37:51.115Z,4.70
2023-01-22T02:40:22.058Z,4.80
2023-01-22T02:42:54.688Z,4.70
2023-01-22T02:45:26.282Z,4.80
2023-01-22T02:47:57.043Z,5.10
2023-01-22T02:50:29.429Z,4.60
2023-01-22T02:53:02.150Z,4.70
2023-01-22T02:55:34.833Z,4.90
2023-01-22T02:58:04.957Z,5.00
2023-01-22T03:00:35.797Z,5.10
2023-01-22T03:03:17.639Z,4.80
2023-01-22T03:05:52.240Z,4.80
2023-01-22T03:08:26.064Z,4.90
2023-01-22T03:11:00.239Z,4.50
2023-01-22T03:13:48.780Z,4.70
2023-01-22T03:16:37.130Z,4.80
2023-01-22T03:19:25.765Z,4.50
2023-01-22T03:21:59.023Z,4.50
2023-01-22T03:24:32.358Z,4.60
2023-01-22T03:27:05.803Z,4.70
2023-01-22T03:29:41.926Z,4.60
2023-01-22T03:32:19.409Z,4.50
2023-01-22T03:34:49.799Z,4.50
2023-01-22T03:37:20.270Z,4.30
2023-01-22T03:39:50.344Z,4.30
2023-01-22T03:42:25.290Z,4.30
2023-01-22T03:45:00.877Z,4.30
2023-01-22T03:47:31.462Z,4.30
2023-01-22T03:50:07.877Z,4.20
2023-01-22T03:52:38.163Z,4.10
2023-01-22T03:55:10.280Z,4.00
2023-01-22T04:00:13.389Z,4.40
2023-01-22T04:02:43.994Z,4.20
2023-01-22T04:05:17.832Z,4.20
2023-01-22T04:07:54.217Z,4.10
2023-01-22T04:10:26.987Z,4.00
2023-01-22T04:12:57.530Z,4.10
2023-01-22T04:15:27.954Z,3.90
2023-01-22T04:17:58.326Z,4.30
2023-01-22T04:20:30.953Z,3.80
2023-01-22T04:23:01.134Z,3.70
2023-01-22T04:25:31.660Z,3.70
2023-01-22T04:28:02.772Z,4.10
2023-01-22T04:30:35.896Z,3.80
2023-01-22T04:33:09.407Z,3.50
2023-01-22T04:35:42.001Z,3.70
2023-01-22T04:38:15.757Z,3.80
2023-01-22T04:40:48.378Z,3.40
2023-01-22T04:43:19.163Z,3.70
2023-01-22T04:45:52.013Z,4.10
2023-01-22T04:48:22.078Z,4.20
2023-01-22T04:50:54.543Z,4.60
2023-01-22T04:53:25.132Z,4.90
2023-01-22T04:56:00.375Z,4.50
2023-01-22T04:58:35.414Z,5.00
2023-01-22T05:01:08.888Z,5.20
2023-01-22T05:03:42.921Z,4.80
2023-01-22T05:06:15.495Z,5.20
2023-01-22T05:08:47.129Z,5.10
2023-01-22T05:11:17.244Z,5.00
2023-01-22T05:13:47.697Z,4.90
2023-01-22T05:16:18.205Z,4.80
2023-01-22T05:18:48.679Z,4.90
2023-01-22T05:21:18.858Z,5.10
2023-01-22T05:23:48.823Z,5.00
2023-01-22T05:26:19.222Z,4.90
2023-01-22T05:28:50.097Z,5.80
2023-01-22T05:31:20.321Z,4.80
2023-01-22T05:33:57.511Z,5.10
2023-01-22T05:36:27.327Z,4.50
2023-01-22T05:38:57.448Z,4.90
2023-01-22T05:41:28.420Z,4.70
2023-01-22T05:43:58.671Z,4.80
2023-01-22T05:46:28.807Z,4.80
2023-01-22T05:49:04.086Z,4.60
2023-01-22T05:51:36.405Z,4.30
2023-01-22T05:54:06.734Z,4.70
2023-01-22T05:56:39.984Z,4.80
2023-01-22T05:59:11.434Z,4.50
2023-01-22T06:01:42.944Z,4.30
2023-01-22T06:04:13.079Z,4.30
2023-01-22T06:06:50.456Z,4.60
2023-01-22T06:09:20.673Z,4.70
2023-01-22T06:11:53.368Z,4.60
2023-01-22T06:14:23.537Z,4.50
2023-01-22T06:16:54.301Z,4.40
2023-01-22T06:19:24.329Z,4.40
2023-01-22T06:21:58.762Z,4.30
2023-01-22T06:24:30.938Z,4.30
2023-01-22T06:27:05.820Z,4.10
2023-01-22T06:29:36.404Z,4.40
2023-01-22T06:32:09.605Z,4.40
2023-01-22T06:34:40.146Z,4.30
2023-01-22T06:37:11.093Z,3.90
2023-01-22T06:39:44.016Z,4.20
2023-01-22T06:42:14.659Z,3.90
2023-01-22T06:44:47.432Z,4.20
2023-01-22T06:47:17.967Z,4.00
2023-01-22T06:49:50.557Z,4.20
2023-01-22T06:52:20.258Z,3.80
2023-01-22T06:54:50.694Z,4.40
2023-01-22T06:57:20.974Z,4.10
2023-01-22T06:59:56.616Z,4.10
2023-01-22T07:02:26.705Z,4.00
2023-01-22T07:04:56.610Z,4.30
2023-01-22T07:07:27.547Z,4.20
2023-01-22T07:09:57.939Z,4.30
2023-01-22T07:12:28.419Z,4.30
2023-01-22T07:14:59.890Z,4.20
2023-01-22T07:17:30.200Z,4.50
2023-01-22T07:20:00.420Z,4.60
2023-01-22T07:22:38.935Z,4.40
2023-01-22T07:25:10.554Z,4.40
2023-01-22T07:27:41.190Z,4.50
2023-01-22T07:30:14.359Z,4.50
2023-01-22T07:32:46.807Z,4.60
2023-01-22T07:35:17.697Z,4.40
2023-01-22T07:37:59.233Z,4.40
2023-01-22T07:40:29.596Z,4.10
2023-01-22T07:43:02.592Z,4.40
2023-01-22T07:45:32.580Z,4.20
2023-01-22T07:48:03.660Z,4.10
2023-01-22T07:50:36.195Z,4.40
2023-01-22T07:53:06.370Z,4.10
2023-01-22T07:55:38.643Z,4.30
2023-01-22T07:58:12.704Z,4.50
2023-01-22T08:00:43.966Z,4.50
2023-01-22T08:03:19.602Z,4.20
2023-01-22T08:05:49.834Z,4.40
2023-01-22T08:08:21.075Z,4.10
2023-01-22T08:10:57.912Z,4.30
2023-01-22T08:13:33.251Z,4.10
2023-01-22T08:16:06.273Z,4.40
2023-01-22T08:18:36.468Z,4.30
2023-01-22T08:21:08.853Z,4.00
2023-01-22T08:23:39.016Z,4.10
2023-01-22T08:26:14.561Z,4.10
2023-01-22T08:28:44.760Z,4.20
2023-01-22T08:31:26.993Z,4.30
2023-01-22T08:34:01.277Z,4.00
2023-01-22T08:36:32.967Z,3.80
2023-01-22T08:39:03.710Z,4.20
2023-01-22T08:41:33.880Z,4.10
2023-01-22T08:44:07.337Z,4.10
2023-01-22T08:46:40.627Z,4.30
2023-01-22T08:49:13.409Z,4.10
2023-01-22T08:51:50.086Z,3.90
2023-01-22T08:54:23.754Z,4.00
2023-01-22T08:56:55.765Z,4.10
2023-01-22T08:59:30.019Z,4.00
2023-01-22T09:02:03.531Z,4.00
2023-01-22T09:04:38.566Z,3.90
2023-01-22T09:07:15.182Z,3.70
2023-01-22T09:09:47.771Z,4.00
2023-01-22T09:12:17.989Z,3.60
2023-01-22T09:14:48.304Z,3.70
2023-01-22T09:17:18.392Z,3.80
2023-01-22T09:19:48.208Z,4.20
2023-01-22T09:22:19.653Z,4.20
2023-01-22T09:24:49.879Z,4.10
2023-01-22T09:27:20.424Z,4.00
2023-01-22T09:29:50.201Z,4.40
2023-01-22T09:32:20.829Z,4.90
2023-01-22T09:34:51.195Z,4.50
2023-01-22T09:37:24.753Z,4.60
2023-01-22T09:39:54.377Z,5.20
2023-01-22T09:42:33.500Z,7.40
2023-01-22T09:45:10.624Z,7.20
2023-01-22T09:47:47.313Z,7.40
2023-01-22T09:50:22.748Z,8.70
2023-01-22T09:52:56.765Z,8.90
2023-01-22T09:55:39.420Z,9.00
2023-01-22T09:58:21.362Z,9.00
2023-01-22T10:01:00.137Z,9.90
2023-01-22T10:03:36.905Z,9.30
2023-01-22T10:06:17.827Z,9.30
2023-01-22T10:08:57.427Z,9.40
2023-01-22T10:11:27.893Z,8.60
2023-01-22T10:14:01.366Z,8.50
2023-01-22T10:16:38.067Z,8.40
2023-01-22T10:19:19.558Z,8.20
2023-01-22T10:21:56.648Z,8.60
2023-01-22T10:24:29.937Z,8.80
2023-01-22T10:27:10.752Z,7.90
2023-01-22T10:29:41.135Z,8.00
2023-01-22T10:32:23.275Z,7.90
2023-01-22T10:35:06.553Z,8.10
2023-01-22T10:37:47.553Z,8.30
2023-01-22T10:40:26.707Z,7.50
2023-01-22T10:43:06.511Z,7.80
2023-01-22T10:45:36.892Z,7.40
2023-01-22T10:48:16.114Z,7.20
2023-01-22T10:50:46.915Z,7.20
2023-01-22T10:53:33.591Z,7.10
2023-01-22T10:56:14.371Z,6.80
2023-01-22T10:58:48.753Z,7.40
2023-01-22T11:01:32.642Z,6.90
2023-01-22T11:04:13.825Z,7.00
2023-01-22T11:06:49.093Z,6.90
2023-01-22T11:09:24.499Z,6.50
2023-01-22T11:12:06.630Z,6.60
2023-01-22T11:14:40.095Z,6.90
2023-01-22T11:17:21.681Z,6.50
2023-01-22T11:20:00.896Z,6.40
2023-01-22T11:22:39.010Z,6.30
2023-01-22T11:25:13.231Z,6.40
2023-01-22T11:28:03.626Z,6.10
2023-01-22T11:30:53.537Z,6.50
2023-01-22T11:33:51.498Z,6.40
2023-01-22T11:36:33.693Z,6.30
2023-01-22T11:39:16.251Z,6.40
2023-01-22T11:42:08.071Z,6.40
2023-01-22T11:44:58.461Z,6.40
2023-01-22T11:48:01.563Z,6.20
2023-01-22T11:50:42.146Z,6.40
2023-01-22T11:53:38.836Z,6.00
2023-01-22T11:56:34.330Z,5.80
2023-01-22T11:59:14.174Z,6.30
2023-01-22T12:02:21.092Z,6.20
2023-01-22T12:05:13.214Z,5.90
2023-01-22T12:08:14.819Z,6.40
2023-01-22T12:11:26.469Z,6.00
2023-01-22T12:14:28.688Z,6.30
2023-01-22T12:17:10.842Z,6.00
2023-01-22T12:22:45.615Z,6.20
2023-01-22T12:25:32.938Z,5.80
2023-01-22T12:28:12.882Z,5.80
2023-01-22T12:30:54.810Z,6.00
2023-01-22T12:36:01.106Z,6.10
2023-01-22T12:38:43.396Z,6.10
2023-01-22T12:41:43.727Z,6.40
2023-01-22T12:44:33.853Z,5.90
2023-01-22T12:47:13.129Z,6.30
2023-01-22T12:49:51.016Z,6.60
2023-01-22T12:52:36.307Z,6.80
2023-01-22T12:55:30.318Z,6.80
2023-01-22T12:58:00.824Z,6.80
2023-01-22T13:00:38.495Z,6.60
2023-01-22T13:03:31.723Z,7.10
2023-01-22T13:06:04.964Z,6.70
2023-01-22T13:08:42.811Z,6.90
2023-01-22T13:11:15.222Z,7.00
2023-01-22T13:13:51.218Z,6.70
2023-01-22T13:16:28.099Z,6.60
2023-01-22T13:19:00.775Z,6.60
2023-01-22T13:21:33.632Z,6.40
2023-01-22T13:24:11.170Z,6.60
2023-01-22T13:26:52.192Z,6.80
2023-01-22T13:29:27.529Z,7.40
2023-01-22T13:32:00.511Z,8.70
2023-01-22T13:34:33.822Z,9.30
2023-01-22T13:37:22.017Z,9.60
2023-01-22T13:39:54.609Z,9.80
2023-01-22T13:42:29.216Z,9.70
2023-01-22T13:45:04.301Z,9.90
2023-01-22T13:47:36.311Z,10.50
2023-01-22T13:50:21.694Z,10.30
2023-01-22T13:52:52.273Z,9.90
2023-01-22T13:55:26.229Z,10.40
2023-01-22T13:57:58.822Z,10.50
2023-01-22T14:00:35.930Z,10.10
2023-01-22T14:03:23.785Z,10.00
2023-01-22T14:06:09.201Z,9.40
2023-01-22T14:08:51.041Z,9.30
2023-01-22T14:11:21.738Z,9.70
2023-01-22T14:13:56.469Z,9.10
2023-01-22T14:16:28.955Z,8.90
2023-01-22T14:19:02.946Z,8.80
2023-01-22T14:21:35.304Z,8.60
2023-01-22T14:24:09.278Z,8.10
2023-01-22T14:29:11.433Z,7.70
2023-01-22T14:31:44.559Z,8.00
2023-01-22T14:34:14.638Z,7.90
2023-01-22T14:36:48.911Z,7.90
2023-01-22T14:39:19.239Z,7.70
2023-01-22T14:41:50.753Z,7.70
2023-01-22T14:46:53.963Z,7.10
2023-01-22T14:49:29.151Z,6.90
2023-01-22T14:52:02.360Z,7.00
2023-01-22T14:54:37.887Z,7.20
2023-01-22T14:57:13.438Z,6.80
2023-01-22T14:59:45.706Z,6.90
2023-01-22T15:02:16.306Z,6.60
2023-01-22T15:04:49.289Z,7.00
2023-01-22T15:07:25.353Z,6.90
2023-01-22T15:10:00.430Z,7.00
2023-01-22T15:12:30.764Z,6.80
2023-01-22T15:15:00.679Z,6.90
2023-01-22T15:17:31.726Z,6.60
2023-01-22T15:20:04.955Z,7.00
2023-01-22T15:22:34.887Z,6.60
2023-01-22T15:25:08.035Z,6.80
2023-01-22T15:27:41.540Z,6.90
2023-01-22T15:30:14.549Z,6.90
2023-01-22T15:32:45.065Z,6.60
2023-01-22T15:35:20.971Z,6.70
2023-01-22T15:37:51.209Z,6.50
2023-01-22T15:40:24.868Z,6.80
2023-01-22T15:42:54.865Z,6.90
2023-01-22T15:45:24.836Z,6.90
2023-01-22T15:47:55.354Z,6.50
2023-01-22T15:50:26.677Z,6.90
2023-01-22T15:52:58.233Z,6.80
2023-01-22T15:55:31.985Z,7.00
2023-01-22T15:58:02.115Z,6.70
2023-01-22T16:00:34.864Z,6.90
2023-01-22T16:03:05.430Z,6.70
2023-01-22T16:05:37.609Z,6.70
2023-01-22T16:08:10.795Z,6.70
2023-01-22T16:10:41.334Z,6.40
2023-01-22T16:13:13.346Z,6.80
2023-01-22T16:15:43.509Z,6.60
2023-01-22T16:18:16.007Z,6.90
2023-01-22T16:20:48.082Z,6.90
2023-01-22T16:25:51.650Z,7.60
2023-01-22T16:28:21.969Z,7.50
2023-01-22T16:30:52.238Z,7.20
2023-01-22T16:33:31.229Z,7.60
2023-01-22T16:36:08.463Z,7.30
2023-01-22T16:38:39.505Z,6.60
2023-01-22T16:41:30.455Z,7.00
2023-01-22T16:44:06.421Z,7.30
2023-01-22T16:46:44.774Z,7.10
2023-01-22T16:49:18.491Z,7.10
2023-01-22T16:51:55.306Z,6.80
2023-01-22T16:54:27.692Z,6.90
2023-01-22T16:57:05.348Z,6.80
2023-01-22T16:59:37.239Z,6.80
2023-01-22T17:04:43.353Z,6.50
2023-01-22T17:07:31.623Z,6.90
2023-01-22T17:10:05.087Z,6.90
2023-01-22T17:12:37.317Z,6.70
2023-01-22T17:15:11.124Z,6.60
2023-01-22T17:17:41.435Z,7.00
2023-01-22T17:20:15.066Z,6.80
2023-01-22T17:22:48.115Z,6.80
2023-01-22T17:25:18.660Z,6.20
2023-01-22T17:27:49.179Z,6.90
2023-01-22T17:30:20.177Z,6.70
2023-01-22T17:32:51.629Z,7.00
2023-01-22T17:35:25.543Z,6.70
2023-01-22T17:37:56.531Z,6.30
2023-01-22T17:40:29.375Z,7.00
2023-01-22T17:42:59.342Z,6.70
2023-01-22T17:45:32.537Z,6.90
2023-01-22T17:48:09.099Z,6.70
2023-01-22T17:50:42.303Z,6.60
2023-01-22T17:53:14.885Z,6.40
2023-01-22T17:55:44.693Z,6.50
2023-01-22T17:58:14.925Z,6.90
2023-01-22T18:00:45.463Z,6.30
2023-01-22T18:03:18.085Z,6.30
2023-01-22T18:05:54.057Z,6.70
2023-01-22T18:08:24.066Z,6.80
2023-01-22T18:10:56.341Z,6.70
2023-01-22T18:13:27.386Z,6.60
2023-01-22T18:15:58.216Z,6.90
2023-01-22T18:18:30.392Z,6.90
2023-01-22T18:21:00.209Z,6.50
2023-01-22T18:23:35.670Z,6.50
2023-01-22T18:26:10.287Z,7.10
2023-01-22T18:28:42.994Z,6.50
2023-01-22T18:31:15.650Z,6.60
2023-01-22T18:33:48.353Z,6.90
2023-01-22T18:36:24.255Z,6.70
2023-01-22T18:39:01.632Z,7.00
2023-01-22T18:41:39.438Z,6.80
2023-01-22T18:44:12.529Z,7.00
2023-01-22T18:46:46.816Z,7.20
2023-01-22T18:49:20.216Z,6.90
2023-01-22T18:52:00.561Z,7.50
2023-01-22T18:54:31.144Z,7.00
2023-01-22T18:57:01.850Z,6.80
2023-01-22T18:59:35.120Z,7.00
2023-01-22T19:02:05.260Z,7.00
2023-01-22T19:04:35.679Z,6.70
2023-01-22T19:07:05.585Z,7.00
2023-01-22T19:09:39.595Z,6.60
2023-01-22T19:12:13.023Z,6.70
2023-01-22T19:14:46.228Z,7.10
2023-01-22T19:17:16.181Z,7.20
2023-01-22T19:19:46.273Z,6.30
2023-01-22T19:22:16.425Z,6.40
2023-01-22T19:24:48.029Z,6.80
2023-01-22T19:27:20.231Z,6.60
2023-01-22T19:29:50.529Z,6.60
2023-01-22T19:32:27.151Z,6.00
2023-01-22T19:34:58.485Z,6.60
2023-01-22T19:37:33.135Z,6.60
2023-01-22T19:40:07.374Z,6.30
2023-01-22T19:42:39.467Z,6.80
2023-01-22T19:45:13.690Z,6.40
2023-01-22T19:47:43.962Z,6.30
2023-01-22T19:50:15.114Z,6.20
2023-01-22T19:52:47.282Z,6.00
2023-01-22T19:55:24.055Z,6.40
2023-01-22T19:57:56.636Z,6.20
2023-01-22T20:00:26.423Z,6.60
2023-01-22T20:02:56.322Z,6.40
2023-01-22T20:05:26.394Z,7.00
2023-01-22T20:07:58.476Z,6.40
2023-01-22T20:10:28.386Z,6.70
2023-01-22T20:12:58.817Z,6.40
2023-01-22T20:15:29.499Z,6.00
2023-01-22T20:18:01.371Z,6.40
2023-01-22T20:20:31.858Z,6.50
2023-01-22T20:23:02.076Z,6.70
2023-01-22T20:25:38.615Z,6.70
2023-01-22T20:28:11.991Z,7.00
2023-01-22T20:30:41.956Z,6.40
2023-01-22T20:33:12.241Z,6.80
2023-01-22T20:35:46.368Z,6.60
2023-01-22T20:38:21.541Z,6.00
2023-01-22T20:40:54.847Z,6.10
2023-01-22T20:43:27.782Z,6.40
2023-01-22T20:46:05.568Z,6.40
2023-01-22T20:48:37.307Z,6.70
2023-01-22T20:51:15.480Z,6.50
2023-01-22T20:53:51.001Z,8.50
2023-01-22T20:56:25.059Z,12.00
2023-01-22T20:59:01.422Z,12.40
2023-01-22T21:01:32.688Z,11.20
2023-01-22T21:04:05.528Z,10.30
2023-01-22T21:06:38.754Z,9.50
2023-01-22T21:09:12.100Z,9.20
2023-01-22T21:11:46.275Z,9.20
2023-01-22T21:14:18.489Z,8.70
2023-01-22T21:16:48.667Z,8.50
2023-01-22T21:19:24.174Z,8.60
2023-01-22T21:22:00.014Z,8.20
2023-01-22T21:24:32.435Z,8.20
2023-01-22T21:27:02.558Z,7.90
2023-01-22T21:29:36.323Z,8.00
2023-01-22T21:32:06.655Z,8.10
2023-01-22T21:34:36.730Z,7.40
2023-01-22T21:37:06.538Z,7.20
2023-01-22T21:39:44.251Z,7.80
2023-01-22T21:42:32.773Z,7.30
2023-01-22T21:45:20.725Z,7.30
2023-01-22T21:47:50.733Z,7.20
2023-01-22T21:50:21.924Z,6.90
2023-01-22T21:52:54.614Z,7.10
2023-01-22T21:55:24.740Z,6.80
2023-01-22T21:57:55.009Z,6.70
2023-01-22T22:00:27.233Z,6.70
2023-01-22T22:02:57.047Z,7.00
2023-01-22T22:05:30.148Z,7.40
2023-01-22T22:08:03.652Z,7.50
2023-01-22T22:10:38.783Z,7.50
2023-01-22T22:13:11.257Z,7.90
2023-01-22T22:15:41.553Z,8.20
2023-01-22T22:18:11.579Z,7.50
2023-01-22T22:20:42.416Z,7.80
2023-01-22T22:23:15.817Z,7.70
2023-01-22T22:25:48.809Z,7.40
2023-01-22T22:28:19.166Z,7.50
2023-01-22T22:30:49.249Z,7.20
2023-01-22T22:33:19.875Z,7.30
2023-01-22T22:35:52.296Z,7.60
2023-01-22T22:38:27.025Z,7.20
2023-01-22T22:41:03.046Z,7.70
2023-01-22T22:43:40.171Z,7.70
2023-01-22T22:46:15.142Z,8.20
2023-01-22T22:48:46.540Z,8.50
2023-01-22T22:51:21.277Z,8.30
2023-01-22T22:53:55.322Z,9.00
2023-01-22T22:56:26.911Z,8.50
2023-01-22T23:01:29.007Z,8.30
2023-01-22T23:03:59.285Z,8.20
2023-01-22T23:06:37.999Z,8.20
2023-01-22T23:09:08.175Z,8.40
2023-01-22T23:11:38.861Z,7.90
2023-01-22T23:14:09.907Z,8.10
2023-01-22T23:16:42.018Z,7.80
2023-01-22T23:19:16.627Z,7.90
2023-01-22T23:21:49.180Z,8.10
2023-01-22T23:24:19.655Z,8.30
2023-01-22T23:26:52.246Z,7.70
2023-01-22T23:29:27.078Z,8.30
2023-01-22T23:31:59.963Z,8.10
2023-01-22T23:34:29.676Z,8.40
2023-01-22T23:37:00.065Z,7.90
2023-01-22T23:39:29.919Z,7.80
2023-01-22T23:42:00.042Z,8.30
2023-01-22T23:44:29.912Z,8.50
2023-01-22T23:46:59.829Z,7.90
2023-01-22T23:49:29.528Z,8.40
2023-01-22T23:51:59.518Z,8.30
2023-01-22T23:54:29.741Z,7.90
2023-01-22T23:56:59.515Z,7.80
2023-01-22T23:59:29.350Z,7.90
